LDDU Airport Information

Runway Information
Runway 12 Length 10827 ft width 148 ft
Elevation 519 ft Threshold 488 ft Heading 118
Runway 30 Length 10827 ft Width 148 ft
Elevation 484 ft Threshold 0 ft Heading 298
Airport Frequencies
Type APP Name APP Frequency 123.6 MHZ
Type TWR Name TWR Frequency 129.5 MHZ
Airport Navaids
Type NDB Name Dubrovnik Frequency 397 KHZ
Type VOR-DME Name Dubrovnik Frequency 115400 KHZ
Type NDB Name Dubrovnik Frequency 414 KHZ
Type NDB Name Kolocep Frequency 318 KHZ
Airport Weather Information & NOTAM
ADDS - METARS form results

(1008 UTC 15 December 2019)
Data provider http://aviationweather.gov/metar/data/
 
METAR text: LDDU 151000Z 09004KT 050V130 9999 FEW023 13/07 Q1019 NOSIG
Conditions at: LDDU (DUBROVNIK-CILIPI, HR) observed 1000 UTC 15 December 2019
Temperature: 13.0°C (55°F)
Dewpoint: 7.0°C (45°F) [RH = 67%]
Pressure (altimeter): 30.09 inches Hg (1019.0 mb)
Winds: from the E (90 degrees) at 5 MPH (4 knots; 2.1 m/s)
Visibility: 6 or more miles (10+ km)
Ceiling: at least 12,000 feet AGL
Clouds: few clouds at 2300 feet AGL
Weather: no significant weather observed at this time

METAR text: LDDU 150930Z 09008KT 9999 FEW020 12/05 Q1018 NOSIG
Conditions at: LDDU (DUBROVNIK-CILIPI, HR) observed 0930 UTC 15 December 2019
Temperature: 12.0°C (54°F)
Dewpoint: 5.0°C (41°F) [RH = 62%]
Pressure (altimeter): 30.06 inches Hg (1018.0 mb)
Winds: from the E (90 degrees) at 9 MPH (8 knots; 4.1 m/s)
Visibility: 6 or more miles (10+ km)
Ceiling: at least 12,000 feet AGL
Clouds: few clouds at 2000 feet AGL
Weather: no significant weather observed at this time

Forecast for: LDDU (DUBROVNIK-CILIPI, HR)
Text: TAF LDDU 150525Z 1506/1606 05006KT CAVOK TX16/1512Z TN09/1506Z
Forecast period: 0600 to 1000 UTC 15 December 2019
Forecast type: FROM: standard forecast or significant change
Winds: from the NE (50 degrees) at 7 MPH (6 knots; 3.1 m/s)
Visibility: 6 or more miles 10+ km)
Ceiling: unknown
Clouds: missing
Weather: no significant weather forecast for this period
Text: BECMG 1510/1512 12010KT
Forecast period: 1000 UTC 15 December 2019 to 0600 UTC 16 December 2019
Forecast type: BECOMING: Conditions expected to become as follows by 1200 UTC 15 December 2019
Winds: from the ESE (120 degrees) at 12 MPH (10 knots; 5.1 m/s)
Visibility: 6 or more miles 10+ km)
Ceiling: unknown
Clouds: missing
Weather: no significant weather forecast for this period